createdAt,value
2017-12-19T00:01:24.771Z,102012.09
2017-12-19T00:03:57.474Z,102015.88
2017-12-19T00:06:31.024Z,102027.03
2017-12-19T00:09:03.844Z,102024.45
2017-12-19T00:11:36.615Z,102024.39
2017-12-19T00:14:09.128Z,102019.90
2017-12-19T00:16:41.648Z,102025.65
2017-12-19T00:19:14.134Z,102020.59
2017-12-19T00:21:49.371Z,102040.08
2017-12-19T00:24:21.863Z,102040.98
2017-12-19T00:26:54.371Z,102035.00
2017-12-19T00:29:27.377Z,102035.37
2017-12-19T00:32:00.474Z,102047.89
2017-12-19T00:34:33.760Z,102047.41
2017-12-19T00:37:06.615Z,102044.12
2017-12-19T00:39:39.428Z,102045.73
2017-12-19T00:42:13.132Z,102057.56
2017-12-19T02:09:51.843Z,102070.60
2017-12-19T02:12:24.502Z,102073.29
2017-12-19T02:14:57.224Z,102070.27
2017-12-19T02:17:29.913Z,102072.13
2017-12-19T02:20:02.654Z,102057.75
2017-12-19T02:22:35.352Z,102061.77
2017-12-19T02:25:07.906Z,102061.89
2017-12-19T02:27:40.396Z,102061.45
2017-12-19T02:30:13.344Z,102067.58
2017-12-19T02:32:47.236Z,102061.09
2017-12-19T02:35:20.337Z,102058.29
2017-12-19T02:37:53.360Z,102060.43
2017-12-19T02:40:26.409Z,102070.09
2017-12-19T02:43:10.987Z,102072.07
2017-12-19T02:45:43.729Z,102070.81
2017-12-19T02:48:18.480Z,102071.41
2017-12-19T02:50:51.209Z,102065.94
2017-12-19T02:53:24.204Z,102072.30
2017-12-19T02:55:57.286Z,102071.42
2017-12-19T02:58:30.273Z,102072.11
2017-12-19T03:01:03.344Z,102071.47
2017-12-19T03:03:38.677Z,102067.89
2017-12-19T03:06:11.776Z,102068.44
2017-12-19T03:08:44.761Z,102069.73
2017-12-19T03:11:17.955Z,102077.84
2017-12-19T03:13:50.694Z,102074.56
2017-12-19T03:16:23.230Z,102080.25
2017-12-19T03:18:56.407Z,102084.45
2017-12-19T03:21:29.750Z,102086.07
2017-12-19T03:24:03.398Z,102084.86
2017-12-19T03:26:36.732Z,102084.01
2017-12-19T03:29:09.865Z,102085.80
2017-12-19T03:31:42.895Z,102084.25
2017-12-19T03:34:16.033Z,102086.54
2017-12-19T03:36:48.833Z,102092.06
2017-12-19T03:39:21.344Z,102092.50
2017-12-19T03:41:53.856Z,102089.50
2017-12-19T03:44:26.342Z,102107.56
2017-12-19T03:46:58.876Z,102108.95
2017-12-19T03:49:31.826Z,102110.53
2017-12-19T03:52:04.419Z,102115.38
2017-12-19T03:54:37.035Z,102112.01
2017-12-19T03:57:09.654Z,102105.41
2017-12-19T03:59:42.186Z,102108.68
2017-12-19T04:02:14.944Z,102113.57
2017-12-19T04:04:47.427Z,102116.97
2017-12-19T04:07:19.992Z,102114.08
2017-12-19T04:09:52.474Z,102117.91
2017-12-19T04:12:24.988Z,102115.96
2017-12-19T04:14:57.492Z,102114.02
2017-12-19T04:17:30.019Z,102113.70
2017-12-19T04:20:02.496Z,102115.80
2017-12-19T04:22:35.009Z,102116.47
2017-12-19T04:25:07.553Z,102128.80
2017-12-19T04:27:40.165Z,102118.98
2017-12-19T04:30:12.656Z,102124.86
2017-12-19T04:32:46.800Z,102129.97
2017-12-19T04:35:20.272Z,102136.42
2017-12-19T04:37:53.439Z,102138.31
2017-12-19T04:40:25.985Z,102126.11
2017-12-19T04:42:58.517Z,102128.18
2017-12-19T04:45:30.999Z,102130.58
2017-12-19T04:48:03.776Z,102121.77
2017-12-19T04:50:36.259Z,102128.27
2017-12-19T04:53:08.780Z,102122.94
2017-12-19T04:55:41.267Z,102119.23
2017-12-19T04:58:13.783Z,102137.85
2017-12-19T05:00:47.193Z,102132.67
2017-12-19T05:03:19.704Z,102141.55
2017-12-19T05:05:52.191Z,102151.25
2017-12-19T05:08:24.899Z,102154.09
2017-12-19T05:10:57.374Z,102151.39
2017-12-19T05:13:29.879Z,102148.91
2017-12-19T05:16:02.439Z,102152.72
2017-12-19T05:18:34.954Z,102146.88
2017-12-19T05:21:07.436Z,102148.33
2017-12-19T05:23:39.940Z,102161.48
2017-12-19T05:26:12.523Z,102168.70
2017-12-19T05:28:47.191Z,102165.91
2017-12-19T05:31:19.765Z,102164.66
2017-12-19T05:33:52.412Z,102163.05
2017-12-19T05:36:26.015Z,102161.25
2017-12-19T05:38:58.616Z,102165.16
2017-12-19T05:41:31.374Z,102170.14
2017-12-19T05:44:03.981Z,102167.85
2017-12-19T05:46:37.257Z,102161.48
2017-12-19T05:49:10.191Z,102151.70
2017-12-19T05:51:42.750Z,102144.34
2017-12-19T05:54:16.665Z,102144.39
2017-12-19T05:56:49.149Z,102153.42
2017-12-19T05:59:21.661Z,102146.38
2017-12-19T06:01:54.159Z,102148.58
2017-12-19T06:04:26.671Z,102141.22
2017-12-19T06:06:59.176Z,102137.53
2017-12-19T06:09:31.703Z,102144.63
2017-12-19T06:12:04.204Z,102143.92
2017-12-19T06:14:36.735Z,102150.24
2017-12-19T06:17:09.220Z,102152.61
2017-12-19T06:19:41.790Z,102157.77
2017-12-19T06:22:14.328Z,102156.66
2017-12-19T06:24:50.129Z,102165.28
2017-12-19T06:27:22.627Z,102156.11
2017-12-19T06:29:55.186Z,102147.72
2017-12-19T06:32:27.685Z,102154.59
2017-12-19T06:35:00.210Z,102164.78
2017-12-19T06:37:32.702Z,102165.98
2017-12-19T06:40:05.232Z,102167.65
2017-12-19T06:42:37.728Z,102176.49
2017-12-19T06:45:10.300Z,102183.33
2017-12-19T06:47:42.804Z,102184.44
2017-12-19T06:50:16.513Z,102179.09
2017-12-19T06:52:49.006Z,102185.42
2017-12-19T06:55:22.396Z,102184.71
2017-12-19T06:57:54.884Z,102174.66
2017-12-19T07:00:27.396Z,102170.93
2017-12-19T07:02:59.892Z,102172.54
2017-12-19T07:05:32.430Z,102176.30
2017-12-19T07:08:04.939Z,102185.06
2017-12-19T07:10:37.454Z,102192.45
2017-12-19T07:13:09.935Z,102200.22
2017-12-19T07:15:42.447Z,102213.45
2017-12-19T07:18:17.056Z,102215.06
2017-12-19T07:20:50.611Z,102219.00
2017-12-19T07:23:23.105Z,102212.48
2017-12-19T07:25:55.619Z,102208.38
2017-12-19T07:28:28.117Z,102214.42
2017-12-19T07:31:00.633Z,102212.57
2017-12-19T07:33:33.125Z,102218.59
2017-12-19T07:36:05.634Z,102219.98
2017-12-19T07:38:38.119Z,102209.61
2017-12-19T07:41:10.636Z,102214.20
2017-12-19T07:43:43.126Z,102219.92
2017-12-19T07:46:18.017Z,102222.22
2017-12-19T07:48:50.514Z,102215.23
2017-12-19T07:51:23.033Z,102212.38
2017-12-19T07:56:53.004Z,102223.61
2017-12-19T07:59:25.502Z,102220.66
2017-12-19T08:01:58.021Z,102227.84
2017-12-19T08:04:30.517Z,102232.08
2017-12-19T08:07:03.044Z,102239.75
2017-12-19T08:09:35.539Z,102229.34
2017-12-19T08:12:08.065Z,102237.11
2017-12-19T08:14:40.558Z,102226.13
2017-12-19T08:17:13.076Z,102233.66
2017-12-19T08:19:48.058Z,102245.19
2017-12-19T08:22:20.585Z,102252.36
2017-12-19T08:24:53.087Z,102244.72
2017-12-19T08:27:25.615Z,102242.46
2017-12-19T08:29:58.121Z,102241.40
2017-12-19T08:32:30.667Z,102241.84
2017-12-19T08:35:03.268Z,102246.00
2017-12-19T08:37:35.789Z,102253.53
2017-12-19T08:40:08.280Z,102257.91
2017-12-19T08:42:40.789Z,102256.87
2017-12-19T08:45:13.281Z,102258.56
2017-12-19T08:47:45.799Z,102267.13
2017-12-19T08:50:18.318Z,102262.12
2017-12-19T08:52:50.827Z,102266.81
2017-12-19T08:55:23.438Z,102271.94
2017-12-19T08:57:55.946Z,102269.40
2017-12-19T09:00:28.792Z,102273.13
2017-12-19T09:03:01.453Z,102282.98
2017-12-19T09:05:33.973Z,102276.75
2017-12-19T09:08:06.494Z,102283.83
2017-12-19T09:10:39.003Z,102290.91
2017-12-19T09:13:11.508Z,102294.78
2017-12-19T09:15:43.999Z,102298.16
2017-12-19T09:18:18.113Z,102300.57
2017-12-19T09:20:50.627Z,102300.81
2017-12-19T09:23:23.135Z,102309.08
2017-12-19T09:31:27.450Z,102324.58
2017-12-19T09:34:01.984Z,102315.69
2017-12-19T09:36:40.683Z,102325.89
2017-12-19T09:39:14.717Z,102314.56
2017-12-19T09:41:47.489Z,102313.54
2017-12-19T09:44:20.122Z,102314.37
2017-12-19T09:46:53.883Z,102318.23
2017-12-19T09:49:29.354Z,102321.78
2017-12-19T09:52:08.157Z,102310.92
2017-12-19T09:54:41.454Z,102305.86
2017-12-19T09:57:13.958Z,102305.04
2017-12-19T09:59:50.187Z,102311.72
2017-12-19T10:02:24.998Z,102318.22
2017-12-19T10:05:00.083Z,102311.50
2017-12-19T10:07:34.943Z,102312.77
2017-12-19T10:10:07.634Z,102302.17
2017-12-19T10:12:40.135Z,102310.96
2017-12-19T10:15:12.672Z,102310.02
2017-12-19T10:17:45.237Z,102302.97
2017-12-19T10:20:23.662Z,102287.80
2017-12-19T10:22:57.811Z,102289.22
2017-12-19T10:25:30.841Z,102293.66
2017-12-19T10:28:03.421Z,102288.33
2017-12-19T10:30:37.553Z,102291.78
2017-12-19T10:33:10.085Z,102293.42
2017-12-19T10:35:42.610Z,102288.46
2017-12-19T10:38:15.183Z,102284.96
2017-12-19T10:40:51.872Z,102286.75
2017-12-19T10:43:25.315Z,102295.63
2017-12-19T10:46:00.508Z,102294.55
2017-12-19T10:48:33.445Z,102288.78
2017-12-19T10:51:06.464Z,102285.70
2017-12-19T10:53:38.988Z,102297.58
2017-12-19T10:56:11.546Z,102283.30
2017-12-19T10:58:44.104Z,102283.14
2017-12-19T11:01:19.065Z,102282.30
2017-12-19T11:04:01.069Z,102281.03
2017-12-19T11:06:36.916Z,102281.16
2017-12-19T11:09:09.488Z,102277.31
2017-12-19T11:11:42.318Z,102276.32
2017-12-19T11:14:14.858Z,102271.70
2017-12-19T11:16:49.007Z,102267.13
2017-12-19T11:19:24.238Z,102267.16
2017-12-19T11:21:57.722Z,102261.27
2017-12-19T11:24:36.555Z,102260.62
2017-12-19T11:27:09.071Z,102254.78
2017-12-19T11:29:41.651Z,102254.78
2017-12-19T11:32:14.404Z,102248.45
2017-12-19T11:34:47.894Z,102251.63
2017-12-19T11:37:21.643Z,102255.96
2017-12-19T11:39:54.260Z,102258.16
2017-12-19T11:42:27.061Z,102252.16
2017-12-19T11:44:59.763Z,102261.19
2017-12-19T11:47:33.145Z,102256.28
2017-12-19T11:50:05.726Z,102249.17
2017-12-19T11:52:38.337Z,102247.16
2017-12-19T11:55:10.860Z,102247.11
2017-12-19T11:57:43.428Z,102240.08
2017-12-19T12:00:16.386Z,102243.91
2017-12-19T12:02:51.714Z,102244.25
2017-12-19T12:05:24.366Z,102241.84
2017-12-19T12:07:56.864Z,102243.13
2017-12-19T12:10:29.405Z,102249.44
2017-12-19T12:13:02.052Z,102242.98
2017-12-19T12:15:34.572Z,102239.23
2017-12-19T12:18:07.083Z,102236.25
2017-12-19T12:20:39.605Z,102235.30
2017-12-19T12:23:12.110Z,102236.22
2017-12-19T12:25:44.640Z,102229.47
2017-12-19T12:28:17.883Z,102232.55
2017-12-19T12:30:51.210Z,102236.11
2017-12-19T12:33:23.934Z,102231.38
2017-12-19T12:35:56.552Z,102241.10
2017-12-19T12:38:29.154Z,102233.78
2017-12-19T12:41:01.882Z,102224.81
2017-12-19T12:43:34.371Z,102226.64
2017-12-19T12:46:06.895Z,102222.73
2017-12-19T12:48:39.408Z,102225.03
2017-12-19T12:51:11.928Z,102236.40
2017-12-19T12:53:44.431Z,102229.27
2017-12-19T12:56:17.464Z,102222.63
2017-12-19T12:58:50.102Z,102222.27
2017-12-19T13:01:22.653Z,102222.28
2017-12-19T13:03:55.388Z,102222.81
2017-12-19T13:06:27.957Z,102226.17
2017-12-19T13:09:00.521Z,102226.42
2017-12-19T13:11:33.027Z,102230.31
2017-12-19T13:14:05.789Z,102228.41
2017-12-19T13:16:38.420Z,102234.31
2017-12-19T13:19:10.923Z,102232.16
2017-12-19T13:21:47.296Z,102231.32
2017-12-19T13:24:20.178Z,102234.08
2017-12-19T13:26:52.850Z,102231.22
2017-12-19T13:29:25.330Z,102231.09
2017-12-19T13:31:58.345Z,102233.08
2017-12-19T13:34:30.868Z,102230.97
2017-12-19T13:37:03.413Z,102232.70
2017-12-19T13:39:35.920Z,102242.50
2017-12-19T13:42:08.444Z,102238.91
2017-12-19T13:44:40.957Z,102238.89
2017-12-19T13:47:13.515Z,102239.89
2017-12-19T13:49:47.064Z,102242.09
2017-12-19T13:52:20.037Z,102243.20
2017-12-19T13:54:53.126Z,102247.84
2017-12-19T13:57:26.092Z,102244.72
2017-12-19T13:59:58.697Z,102240.40
2017-12-19T14:02:31.361Z,102235.42
2017-12-19T14:05:03.872Z,102235.55
2017-12-19T14:07:36.402Z,102238.23
2017-12-19T14:10:08.904Z,102233.50
2017-12-19T14:12:41.421Z,102246.66
2017-12-19T14:15:13.932Z,102256.80
2017-12-19T14:17:46.540Z,102254.59
2017-12-19T14:20:21.287Z,102263.56
2017-12-19T14:22:53.940Z,102257.64
2017-12-19T14:25:26.448Z,102258.57
2017-12-19T14:27:58.994Z,102266.71
2017-12-19T14:30:31.516Z,102274.15
2017-12-19T14:33:04.046Z,102273.31
2017-12-19T14:35:36.531Z,102272.28
2017-12-19T14:38:09.123Z,102276.84
2017-12-19T14:40:41.716Z,102275.81
2017-12-19T14:43:14.324Z,102272.86
2017-12-19T14:45:47.862Z,102283.53
2017-12-19T14:48:20.840Z,102283.80
2017-12-19T14:50:53.379Z,102280.41
2017-12-19T14:53:25.947Z,102287.00
2017-12-19T14:55:58.517Z,102284.16
2017-12-19T14:58:31.079Z,102284.58
2017-12-19T15:01:03.561Z,102284.06
2017-12-19T15:03:36.082Z,102282.38
2017-12-19T15:06:08.594Z,102279.86
2017-12-19T15:08:41.136Z,102282.89
2017-12-19T15:11:13.632Z,102279.84
2017-12-19T15:13:47.837Z,102284.37
2017-12-19T15:16:20.492Z,102287.89
2017-12-19T15:18:53.211Z,102279.44
2017-12-19T15:21:25.776Z,102281.56
2017-12-19T15:23:58.411Z,102283.08
2017-12-19T15:26:30.930Z,102277.48
2017-12-19T15:29:03.444Z,102273.33
2017-12-19T15:31:36.098Z,102275.95
2017-12-19T15:34:08.799Z,102279.32
2017-12-19T15:36:41.282Z,102277.84
2017-12-19T15:39:13.807Z,102283.28
2017-12-19T15:41:46.576Z,102281.97
2017-12-19T15:44:19.109Z,102292.27
2017-12-19T15:46:52.396Z,102282.47
2017-12-19T15:49:25.143Z,102290.94
2017-12-19T15:51:57.769Z,102284.61
2017-12-19T15:54:30.369Z,102293.72
2017-12-19T15:57:02.949Z,102297.52
2017-12-19T15:59:35.476Z,102285.09
2017-12-19T16:02:07.975Z,102278.91
2017-12-19T16:04:40.484Z,102274.25
2017-12-19T16:07:13.025Z,102269.98
2017-12-19T16:09:45.548Z,102268.72
2017-12-19T16:12:19.088Z,102266.90
2017-12-19T16:14:51.624Z,102265.90
2017-12-19T16:17:24.180Z,102265.05
2017-12-19T16:19:56.786Z,102272.53
2017-12-19T16:22:30.426Z,102267.82
2017-12-19T16:25:03.089Z,102270.35
2017-12-19T16:27:35.629Z,102268.33
2017-12-19T16:30:08.137Z,102272.64
2017-12-19T16:32:40.638Z,102274.45
2017-12-19T16:35:13.275Z,102271.95
2017-12-19T16:37:45.772Z,102271.13
2017-12-19T16:40:19.033Z,102274.95
2017-12-19T16:42:51.531Z,102277.59
2017-12-19T16:45:24.692Z,102282.64
2017-12-19T16:47:57.342Z,102278.73
2017-12-19T16:50:29.944Z,102282.21
2017-12-19T16:53:02.466Z,102285.20
2017-12-19T16:55:34.975Z,102277.14
2017-12-19T16:58:07.485Z,102276.66
2017-12-19T17:00:40.010Z,102277.47
2017-12-19T17:03:12.507Z,102281.28
2017-12-19T17:05:45.101Z,102285.92
2017-12-19T17:08:17.796Z,102293.00
2017-12-19T17:10:51.210Z,102281.08
2017-12-19T17:13:23.759Z,102282.69
2017-12-19T17:15:56.427Z,102289.42
2017-12-19T17:18:28.962Z,102283.93
2017-12-19T17:21:01.554Z,102286.73
2017-12-19T17:23:34.107Z,102287.36
2017-12-19T17:26:06.709Z,102283.73
2017-12-19T17:28:39.205Z,102283.83
2017-12-19T17:31:11.726Z,102282.98
2017-12-19T17:33:44.277Z,102287.56
2017-12-19T17:36:17.515Z,102292.65
2017-12-19T17:38:50.034Z,102291.86
2017-12-19T17:41:22.558Z,102285.41
2017-12-19T17:43:55.094Z,102285.25
2017-12-19T17:46:27.660Z,102284.19
2017-12-19T17:49:00.281Z,102284.39
2017-12-19T17:51:32.829Z,102290.80
2017-12-19T17:54:05.360Z,102286.29
2017-12-19T17:56:37.860Z,102290.87
2017-12-19T17:59:10.367Z,102291.39
2017-12-19T18:01:42.905Z,102291.23
2017-12-19T18:04:15.428Z,102289.97
2017-12-19T18:06:48.855Z,102296.42
2017-12-19T18:09:21.361Z,102291.88
2017-12-19T18:11:53.897Z,102290.54
2017-12-19T18:14:26.410Z,102277.50
2017-12-19T18:16:58.930Z,102277.81
2017-12-19T18:19:31.436Z,102274.95
2017-12-19T18:22:03.955Z,102270.59
2017-12-19T18:24:36.464Z,102273.59
2017-12-19T18:27:08.976Z,102278.52
2017-12-19T18:29:41.473Z,102276.67
2017-12-19T18:32:14.017Z,102277.10
2017-12-19T18:34:46.538Z,102267.80
2017-12-19T18:37:19.607Z,102264.02
2017-12-19T18:39:52.610Z,102270.83
2017-12-19T18:42:25.134Z,102266.21
2017-12-19T18:44:57.859Z,102267.26
2017-12-19T18:47:30.499Z,102263.93
2017-12-19T18:50:03.181Z,102268.29
2017-12-19T18:52:35.791Z,102259.34
2017-12-19T18:55:08.297Z,102260.70
2017-12-19T18:57:40.810Z,102266.81
2017-12-19T19:00:13.652Z,102263.47
2017-12-19T19:02:47.196Z,102268.66
2017-12-19T19:05:19.796Z,102267.00
2017-12-19T19:07:52.422Z,102265.64
2017-12-19T19:10:24.919Z,102270.19
2017-12-19T19:12:57.432Z,102266.80
2017-12-19T19:15:29.941Z,102272.30
2017-12-19T19:18:02.566Z,102270.63
2017-12-19T19:20:35.078Z,102271.86
2017-12-19T19:23:07.594Z,102260.03
2017-12-19T19:25:40.091Z,102270.62
2017-12-19T19:28:12.599Z,102274.95
2017-12-19T19:30:45.092Z,102264.72
2017-12-19T19:33:17.615Z,102260.06
2017-12-19T19:35:50.225Z,102262.52
2017-12-19T19:38:22.889Z,102266.33
2017-12-19T19:40:55.499Z,102262.17
2017-12-19T19:43:28.084Z,102266.83
2017-12-19T19:46:00.583Z,102271.47
2017-12-19T19:48:33.096Z,102287.13
2017-12-19T19:51:05.669Z,102276.21
2017-12-19T19:53:38.186Z,102279.60
2017-12-19T19:56:10.682Z,102277.23
2017-12-19T19:58:43.267Z,102273.86
2017-12-19T20:01:15.766Z,102279.42
2017-12-19T20:03:49.281Z,102283.22
2017-12-19T20:06:21.879Z,102294.58
2017-12-19T20:08:54.590Z,102287.88
2017-12-19T20:11:27.148Z,102294.14
2017-12-19T20:13:59.672Z,102294.96
2017-12-19T20:16:32.198Z,102296.43
2017-12-19T20:19:04.743Z,102296.36
2017-12-19T20:21:37.238Z,102294.42
2017-12-19T20:24:09.760Z,102295.58
2017-12-19T20:26:42.246Z,102296.44
2017-12-19T20:29:14.799Z,102291.60
2017-12-19T20:31:47.760Z,102297.53
2017-12-19T20:34:20.285Z,102304.87
2017-12-19T20:36:52.818Z,102311.17
2017-12-19T20:39:25.349Z,102318.95
2017-12-19T20:41:57.991Z,102315.16
2017-12-19T20:44:30.504Z,102322.38
2017-12-19T20:47:02.983Z,102319.38
2017-12-19T20:49:37.548Z,102315.14
2017-12-19T20:52:10.058Z,102306.93
2017-12-19T20:54:42.559Z,102312.33
2017-12-19T20:57:15.048Z,102307.48
2017-12-19T20:59:47.653Z,102314.42
2017-12-19T21:02:20.546Z,102308.27
2017-12-19T21:04:53.202Z,102320.25
2017-12-19T21:07:25.737Z,102324.73
2017-12-19T21:09:58.409Z,102322.34
2017-12-19T21:12:30.902Z,102319.00
2017-12-19T21:15:03.462Z,102314.00
2017-12-19T21:17:35.948Z,102312.38
2017-12-19T21:20:08.770Z,102309.74
2017-12-19T21:22:41.346Z,102300.11
2017-12-19T21:25:13.951Z,102296.77
2017-12-19T21:27:46.691Z,102288.88
2017-12-19T21:30:19.255Z,102297.03
2017-12-19T21:32:52.014Z,102302.59
2017-12-19T21:35:24.557Z,102298.61
2017-12-19T21:37:57.068Z,102296.08
2017-12-19T21:40:29.603Z,102302.95
2017-12-19T21:43:02.115Z,102305.08
2017-12-19T21:45:34.631Z,102304.55
2017-12-19T21:48:07.128Z,102300.25
2017-12-19T21:50:39.638Z,102302.41
2017-12-19T21:53:12.141Z,102300.06
2017-12-19T21:55:44.658Z,102292.14
2017-12-19T21:58:17.157Z,102293.83
2017-12-19T22:00:50.524Z,102299.02
2017-12-19T22:03:23.263Z,102302.22
2017-12-19T22:05:55.807Z,102305.08
2017-12-19T22:08:28.368Z,102309.88
2017-12-19T22:11:01.927Z,102307.55
2017-12-19T22:13:34.420Z,102312.33
2017-12-19T22:16:06.997Z,102309.88
2017-12-19T22:18:39.493Z,102303.14
2017-12-19T22:21:12.007Z,102310.38
2017-12-19T22:23:44.502Z,102310.36
2017-12-19T22:26:17.029Z,102311.67
2017-12-19T22:28:56.180Z,102310.50
2017-12-19T22:31:23.732Z,102320.31
2017-12-19T22:33:56.636Z,102321.77
2017-12-19T22:36:29.204Z,102328.89
2017-12-19T22:39:01.707Z,102330.50
2017-12-19T22:41:34.229Z,102335.32
2017-12-19T22:44:09.408Z,102335.89
2017-12-19T22:46:42.109Z,102329.81
2017-12-19T22:49:14.664Z,102319.28
2017-12-19T22:51:47.184Z,102319.95
2017-12-19T22:54:20.454Z,102315.61
2017-12-19T22:56:53.149Z,102310.50
2017-12-19T22:59:25.809Z,102315.67
2017-12-19T23:01:58.358Z,102320.02
2017-12-19T23:04:30.887Z,102309.52
2017-12-19T23:07:03.384Z,102317.05
2017-12-19T23:09:36.028Z,102312.92
2017-12-19T23:12:08.519Z,102313.45
2017-12-19T23:14:41.031Z,102314.23
2017-12-19T23:17:13.524Z,102313.64
2017-12-19T23:19:46.041Z,102316.59
2017-12-19T23:22:19.544Z,102315.39
2017-12-19T23:24:52.065Z,102315.61
2017-12-19T23:27:24.860Z,102317.84
2017-12-19T23:29:57.384Z,102312.36
2017-12-19T23:32:29.883Z,102306.34
2017-12-19T23:35:02.400Z,102302.31
2017-12-19T23:37:34.901Z,102303.69
2017-12-19T23:40:07.415Z,102298.23
2017-12-19T23:42:39.920Z,102293.31
2017-12-19T23:45:12.427Z,102290.73
2017-12-19T23:47:51.220Z,102290.97
2017-12-19T23:50:25.564Z,102286.25
2017-12-19T23:52:58.206Z,102273.46
2017-12-19T23:55:30.808Z,102270.37
2017-12-19T23:58:03.684Z,102279.34
